createdAt,value
2023-02-27T00:00:46.834Z,0.52
2023-02-27T00:01:46.818Z,0.52
2023-02-27T00:02:46.896Z,0.51
2023-02-27T00:03:46.862Z,0.52
2023-02-27T00:04:46.774Z,0.51
2023-02-27T00:05:46.801Z,0.53
2023-02-27T00:55:37.367Z,0.50
2023-02-27T00:56:38.338Z,0.50
2023-02-27T00:57:38.382Z,0.50
2023-02-27T00:58:38.313Z,0.50
2023-02-27T00:59:38.300Z,0.50
2023-02-27T01:00:38.345Z,0.50
2023-02-27T01:01:38.280Z,0.41
2023-02-27T01:02:38.329Z,0.35
2023-02-27T01:03:38.280Z,0.34
2023-02-27T01:04:38.255Z,0.34
2023-02-27T01:05:38.246Z,0.36
2023-02-27T01:06:38.241Z,0.38
2023-02-27T01:07:38.233Z,0.41
2023-02-27T01:08:38.219Z,0.45
2023-02-27T01:09:38.211Z,0.49
2023-02-27T01:10:38.205Z,0.50
2023-02-27T01:11:38.223Z,0.50
2023-02-27T01:12:38.182Z,0.50
2023-02-27T01:13:38.191Z,0.50
2023-02-27T01:14:38.163Z,0.50
2023-02-27T01:15:38.156Z,0.50
2023-02-27T01:16:38.224Z,0.50
2023-02-27T01:17:38.149Z,0.50
2023-02-27T01:18:38.133Z,0.50
2023-02-27T01:19:38.118Z,0.51
2023-02-27T01:20:38.116Z,0.51
2023-02-27T01:21:38.099Z,0.50
2023-02-27T01:22:38.100Z,0.50
2023-02-27T01:23:38.084Z,0.51
2023-02-27T01:24:38.076Z,0.50
2023-02-27T01:25:38.066Z,0.51
2023-02-27T01:26:38.050Z,0.51
2023-02-27T01:27:38.080Z,0.50
2023-02-27T01:28:38.038Z,0.50
2023-02-27T01:29:38.031Z,0.52
2023-02-27T01:30:38.069Z,0.51
2023-02-27T01:31:38.034Z,0.50
2023-02-27T01:32:38.123Z,0.51
2023-02-27T01:33:37.995Z,0.50
2023-02-27T01:34:37.993Z,0.50
2023-02-27T01:35:37.984Z,0.51
2023-02-27T01:36:37.997Z,0.50
2023-02-27T01:37:37.957Z,0.51
2023-02-27T01:38:37.952Z,0.51
2023-02-27T01:39:37.952Z,0.52
2023-02-27T01:40:37.935Z,0.52
2023-02-27T01:41:37.918Z,0.51
2023-02-27T01:42:37.908Z,0.53
2023-02-27T01:43:37.933Z,0.51
2023-02-27T01:44:37.903Z,0.51
2023-02-27T01:45:37.919Z,0.51
2023-02-27T01:46:37.881Z,0.52
2023-02-27T01:47:37.877Z,0.51
2023-02-27T01:48:37.860Z,0.50
2023-02-27T01:49:37.856Z,0.51
2023-02-27T01:50:37.851Z,0.50
2023-02-27T01:51:38.151Z,0.52
2023-02-27T01:52:37.827Z,0.52
2023-02-27T01:53:37.819Z,0.52
2023-02-27T01:54:37.825Z,0.52
2023-02-27T01:55:37.820Z,0.51
2023-02-27T01:56:37.787Z,0.51
2023-02-27T01:57:37.791Z,0.50
2023-02-27T01:58:37.780Z,0.52
2023-02-27T01:59:37.790Z,0.52
2023-02-27T02:00:37.763Z,0.51
2023-02-27T02:01:37.782Z,0.51
2023-02-27T02:02:37.828Z,0.52
2023-02-27T02:03:37.737Z,0.51
2023-02-27T02:04:37.720Z,0.51
2023-02-27T02:05:37.706Z,0.51
2023-02-27T02:06:37.706Z,0.52
2023-02-27T02:07:37.689Z,0.50
2023-02-27T02:08:37.682Z,0.51
2023-02-27T02:09:37.679Z,0.50
2023-02-27T02:10:37.660Z,0.51
2023-02-27T02:11:37.657Z,0.51
2023-02-27T02:12:37.639Z,0.51
2023-02-27T02:13:37.632Z,0.51
2023-02-27T02:14:37.623Z,0.52
2023-02-27T02:15:37.800Z,0.52
2023-02-27T02:16:37.632Z,0.52
2023-02-27T02:17:37.607Z,0.51
2023-02-27T02:18:37.585Z,0.52
2023-02-27T02:19:37.581Z,0.51
2023-02-27T02:20:37.565Z,0.51
2023-02-27T02:21:37.561Z,0.52
2023-02-27T02:22:37.556Z,0.51
2023-02-27T02:23:37.540Z,0.51
2023-02-27T02:24:37.538Z,0.51
2023-02-27T02:25:37.526Z,0.51
2023-02-27T02:26:37.513Z,0.51
2023-02-27T02:27:37.500Z,0.51
2023-02-27T02:28:37.496Z,0.51
2023-02-27T02:29:37.485Z,0.51
2023-02-27T02:30:37.675Z,0.51
2023-02-27T02:31:37.658Z,0.52
2023-02-27T02:32:37.451Z,0.50
2023-02-27T02:33:37.451Z,0.51
2023-02-27T02:34:37.436Z,0.51
2023-02-27T02:35:37.430Z,0.51
2023-02-27T02:36:37.424Z,0.52
2023-02-27T02:37:37.417Z,0.52
2023-02-27T02:38:37.408Z,0.52
2023-02-27T02:39:37.398Z,0.52
2023-02-27T02:40:37.383Z,0.51
2023-02-27T02:41:37.375Z,0.51
2023-02-27T02:42:37.363Z,0.50
2023-02-27T02:43:37.352Z,0.52
2023-02-27T02:44:37.363Z,0.52
2023-02-27T02:45:37.336Z,0.52
2023-02-27T02:46:37.325Z,0.51
2023-02-27T02:47:37.355Z,0.52
2023-02-27T02:48:37.304Z,0.52
2023-02-27T02:49:37.299Z,0.51
2023-02-27T02:50:37.308Z,0.52
2023-02-27T02:51:37.280Z,0.52
2023-02-27T02:52:37.274Z,0.52
2023-02-27T02:53:37.776Z,0.51
2023-02-27T02:54:37.255Z,0.53
2023-02-27T02:55:37.250Z,0.52
2023-02-27T02:56:37.237Z,0.52
2023-02-27T02:57:37.224Z,0.51
2023-02-27T02:58:37.212Z,0.52
2023-02-27T02:59:37.207Z,0.51
2023-02-27T03:00:37.200Z,0.53
2023-02-27T03:01:37.262Z,0.52
2023-02-27T03:02:37.179Z,0.52
2023-02-27T03:03:37.188Z,0.52
2023-02-27T03:04:37.179Z,0.52
2023-02-27T03:05:37.152Z,0.51
2023-02-27T03:06:37.145Z,0.51
2023-02-27T03:07:37.198Z,0.51
2023-02-27T03:08:37.120Z,0.51
2023-02-27T03:09:37.114Z,0.52
2023-02-27T03:10:37.099Z,0.51
2023-02-27T03:11:37.090Z,0.51
2023-02-27T03:12:37.091Z,0.52
2023-02-27T03:13:37.070Z,0.50
2023-02-27T03:14:37.063Z,0.53
2023-02-27T03:15:37.107Z,0.52
2023-02-27T03:16:37.058Z,0.52
2023-02-27T03:17:37.042Z,0.52
2023-02-27T03:18:37.022Z,0.52
2023-02-27T03:19:37.043Z,0.52
2023-02-27T03:20:37.004Z,0.52
2023-02-27T03:21:37.000Z,0.52
2023-02-27T03:22:36.987Z,0.53
2023-02-27T03:23:36.980Z,0.52
2023-02-27T03:24:36.976Z,0.52
2023-02-27T03:25:36.950Z,0.51
2023-02-27T03:26:36.945Z,0.53
2023-02-27T03:27:36.936Z,0.52
2023-02-27T03:28:36.928Z,0.53
2023-02-27T03:29:36.923Z,0.53
2023-02-27T03:30:36.936Z,0.52
2023-02-27T03:31:36.995Z,0.52
2023-02-27T03:32:36.889Z,0.51
2023-02-27T03:33:36.879Z,0.51
2023-02-27T03:34:36.879Z,0.52
2023-02-27T03:35:36.880Z,0.52
2023-02-27T03:36:36.859Z,0.52
2023-02-27T03:37:36.842Z,0.52
2023-02-27T03:38:36.827Z,0.52
2023-02-27T03:39:36.820Z,0.52
2023-02-27T03:40:36.807Z,0.53
2023-02-27T03:41:36.801Z,0.52
2023-02-27T03:42:36.790Z,0.52
2023-02-27T03:43:36.786Z,0.54
2023-02-27T03:44:36.773Z,0.52
2023-02-27T03:45:36.766Z,0.52
2023-02-27T03:46:36.797Z,0.52
2023-02-27T03:47:36.963Z,0.53
2023-02-27T03:48:36.733Z,0.51
2023-02-27T03:49:36.722Z,0.51
2023-02-27T03:50:36.714Z,0.52
2023-02-27T03:51:36.747Z,0.53
2023-02-27T03:52:36.703Z,0.52
2023-02-27T03:53:36.690Z,0.52
2023-02-27T03:54:36.677Z,0.52
2023-02-27T03:55:36.706Z,0.51
2023-02-27T03:56:36.663Z,0.52
2023-02-27T03:57:36.661Z,0.52
2023-02-27T03:58:36.643Z,0.52
2023-02-27T03:59:36.641Z,0.52
2023-02-27T04:00:36.618Z,0.52
2023-02-27T04:01:36.633Z,0.53
2023-02-27T04:02:36.627Z,0.51
2023-02-27T04:03:36.594Z,0.52
2023-02-27T04:04:37.121Z,0.52
2023-02-27T04:05:36.578Z,0.52
2023-02-27T04:06:36.566Z,0.52
2023-02-27T04:07:36.586Z,0.52
2023-02-27T04:08:36.554Z,0.52
2023-02-27T04:09:36.537Z,0.52
2023-02-27T04:10:36.530Z,0.52
2023-02-27T04:11:36.525Z,0.52
2023-02-27T04:12:36.517Z,0.52
2023-02-27T04:13:36.503Z,0.52
2023-02-27T04:14:36.497Z,0.54
2023-02-27T04:15:36.496Z,0.52
2023-02-27T04:16:36.476Z,0.53
2023-02-27T04:17:36.471Z,0.53
2023-02-27T04:18:36.467Z,0.52
2023-02-27T04:19:36.462Z,0.51
2023-02-27T04:20:36.444Z,0.52
2023-02-27T04:21:36.444Z,0.52
2023-02-27T04:22:36.427Z,0.52
2023-02-27T04:23:36.449Z,0.52
2023-02-27T04:24:36.408Z,0.51
2023-02-27T04:25:36.398Z,0.53
2023-02-27T04:26:36.392Z,0.54
2023-02-27T04:27:36.385Z,0.52
2023-02-27T04:28:36.375Z,0.52
2023-02-27T04:29:36.373Z,0.51
2023-02-27T04:30:36.362Z,0.52
2023-02-27T04:31:36.446Z,0.52
2023-02-27T04:32:36.438Z,0.52
2023-02-27T04:33:36.336Z,0.53
2023-02-27T04:34:36.332Z,0.51
2023-02-27T04:35:36.318Z,0.51
2023-02-27T04:36:36.313Z,0.53
2023-02-27T04:37:36.296Z,0.52
2023-02-27T04:38:36.289Z,0.51
2023-02-27T04:39:36.310Z,0.52
2023-02-27T04:40:36.282Z,0.51
2023-02-27T04:41:36.269Z,0.53
2023-02-27T04:42:36.262Z,0.53
2023-02-27T04:43:36.252Z,0.52
2023-02-27T04:44:36.247Z,0.51
2023-02-27T04:45:36.294Z,0.52
2023-02-27T04:46:36.222Z,0.53
2023-02-27T04:47:36.221Z,0.52
2023-02-27T04:48:36.212Z,0.53
2023-02-27T04:49:36.198Z,0.52
2023-02-27T04:50:36.200Z,0.52
2023-02-27T04:51:36.191Z,0.53
2023-02-27T04:52:36.177Z,0.52
2023-02-27T04:53:36.164Z,0.53
2023-02-27T04:54:36.156Z,0.52
2023-02-27T04:55:36.192Z,0.55
2023-02-27T04:56:36.153Z,0.52
2023-02-27T04:57:36.131Z,0.52
2023-02-27T04:58:36.124Z,0.52
2023-02-27T04:59:36.152Z,0.53
2023-02-27T05:00:36.111Z,0.52
2023-02-27T05:01:36.166Z,0.52
2023-02-27T05:02:36.325Z,0.52
2023-02-27T05:03:36.080Z,0.53
2023-02-27T05:04:36.069Z,0.53
2023-02-27T05:05:36.078Z,0.53
2023-02-27T05:06:36.050Z,0.53
2023-02-27T05:07:36.044Z,0.52
2023-02-27T05:08:36.032Z,0.53
2023-02-27T05:09:36.035Z,0.52
2023-02-27T05:10:36.016Z,0.53
2023-02-27T05:11:36.050Z,0.52
2023-02-27T05:12:36.006Z,0.53
2023-02-27T05:13:36.024Z,0.52
2023-02-27T05:14:35.981Z,0.52
2023-02-27T05:15:36.066Z,0.52
2023-02-27T05:16:36.042Z,0.52
2023-02-27T05:17:36.026Z,0.53
2023-02-27T05:18:35.956Z,0.53
2023-02-27T05:19:35.940Z,0.53
2023-02-27T05:20:35.935Z,0.54
2023-02-27T05:21:35.921Z,0.53
2023-02-27T05:22:35.916Z,0.52
2023-02-27T05:23:35.904Z,0.53
2023-02-27T05:24:35.914Z,0.55
2023-02-27T05:25:35.885Z,0.53
2023-02-27T05:26:35.881Z,0.53
2023-02-27T05:27:35.949Z,0.53
2023-02-27T05:28:35.859Z,0.53
2023-02-27T05:29:35.856Z,0.53
2023-02-27T05:30:35.851Z,0.53
2023-02-27T05:31:35.877Z,0.52
2023-02-27T05:32:35.910Z,0.53
2023-02-27T05:33:35.824Z,0.52
2023-02-27T05:34:35.820Z,0.52
2023-02-27T05:35:35.868Z,0.54
2023-02-27T05:36:35.796Z,0.53
2023-02-27T05:37:35.782Z,0.53
2023-02-27T05:38:35.781Z,0.52
2023-02-27T05:39:35.768Z,0.53
2023-02-27T05:40:35.766Z,0.52
2023-02-27T05:41:35.743Z,0.53
2023-02-27T05:42:35.749Z,0.54
2023-02-27T05:43:35.755Z,0.53
2023-02-27T05:44:35.722Z,0.52
2023-02-27T05:45:35.751Z,0.51
2023-02-27T05:46:35.708Z,0.54
2023-02-27T05:47:36.621Z,0.53
2023-02-27T05:48:35.685Z,0.53
2023-02-27T05:49:35.666Z,0.53
2023-02-27T05:50:35.654Z,0.52
2023-02-27T05:51:35.667Z,0.52
2023-02-27T05:52:35.645Z,0.53
2023-02-27T05:53:35.631Z,0.52
2023-02-27T05:54:35.627Z,0.52
2023-02-27T05:55:35.614Z,0.53
2023-02-27T05:56:35.608Z,0.54
2023-02-27T05:57:35.610Z,0.54
2023-02-27T05:58:35.588Z,0.52
2023-02-27T05:59:35.609Z,0.54
2023-02-27T06:00:35.581Z,0.54
2023-02-27T06:01:35.562Z,0.53
2023-02-27T06:02:35.632Z,0.53
2023-02-27T06:03:35.658Z,0.52
2023-02-27T06:04:35.555Z,0.54
2023-02-27T06:05:35.521Z,0.53
2023-02-27T06:06:35.527Z,0.53
2023-02-27T06:07:35.510Z,0.53
2023-02-27T06:08:35.504Z,0.53
2023-02-27T06:09:35.492Z,0.53
2023-02-27T06:10:35.485Z,0.53
2023-02-27T06:11:35.469Z,0.53
2023-02-27T06:12:35.467Z,0.52
2023-02-27T06:13:35.458Z,0.53
2023-02-27T06:14:35.446Z,0.53
2023-02-27T06:15:35.463Z,0.52
2023-02-27T06:16:35.464Z,0.53
2023-02-27T06:17:35.421Z,0.53
2023-02-27T06:18:35.454Z,0.54
2023-02-27T06:19:35.423Z,0.53
2023-02-27T06:20:35.410Z,0.53
2023-02-27T06:21:35.380Z,0.54
2023-02-27T06:22:35.652Z,0.52
2023-02-27T06:23:35.368Z,0.53
2023-02-27T06:24:35.359Z,0.53
2023-02-27T06:25:36.354Z,0.52
2023-02-27T06:26:35.374Z,0.53
2023-02-27T06:27:35.333Z,0.53
2023-02-27T06:28:35.310Z,0.55
2023-02-27T06:29:35.304Z,0.57
2023-02-27T06:30:35.349Z,0.59
2023-02-27T06:31:35.701Z,0.62
2023-02-27T06:32:35.290Z,0.62
2023-02-27T06:33:35.273Z,0.65
2023-02-27T06:34:35.262Z,0.67
2023-02-27T06:35:35.343Z,0.68
2023-02-27T06:36:35.644Z,0.70
2023-02-27T06:37:35.249Z,0.73
2023-02-27T06:38:35.676Z,0.73
2023-02-27T06:39:35.211Z,0.77
2023-02-27T06:40:35.204Z,0.78
2023-02-27T06:41:35.192Z,0.82
2023-02-27T06:42:35.180Z,0.83
2023-02-27T06:43:35.172Z,0.85
2023-02-27T06:44:35.659Z,0.87
2023-02-27T06:45:35.161Z,0.89
2023-02-27T06:46:35.200Z,0.90
2023-02-27T06:47:35.155Z,0.93
2023-02-27T06:48:35.128Z,0.98
2023-02-27T06:49:35.151Z,1.01
2023-02-27T06:50:35.261Z,1.03
2023-02-27T06:51:35.126Z,1.03
2023-02-27T06:52:35.112Z,1.05
2023-02-27T06:53:35.104Z,1.09
2023-02-27T06:54:42.577Z,1.15
2023-02-27T06:55:35.255Z,1.15
2023-02-27T06:56:35.050Z,1.15
2023-02-27T06:57:36.038Z,1.17
2023-02-27T06:58:35.030Z,1.20
2023-02-27T06:59:42.584Z,1.29
2023-02-27T07:00:38.221Z,1.16
2023-02-27T07:01:35.076Z,1.16
2023-02-27T07:02:34.988Z,1.20
2023-02-27T07:03:35.352Z,1.29
2023-02-27T07:04:34.978Z,1.49
2023-02-27T07:05:35.956Z,1.74
2023-02-27T07:07:35.073Z,1.86
2023-02-27T07:07:38.008Z,1.87
2023-02-27T07:08:34.944Z,1.87
2023-02-27T07:09:34.927Z,1.90
2023-02-27T07:10:35.166Z,1.96
2023-02-27T07:11:34.904Z,2.11
2023-02-27T07:12:34.893Z,2.35
2023-02-27T07:13:34.895Z,2.42
2023-02-27T07:14:34.879Z,2.52
2023-02-27T07:15:35.242Z,2.57
2023-02-27T07:16:34.856Z,2.63
2023-02-27T07:17:34.870Z,2.68
2023-02-27T07:18:34.846Z,2.84
2023-02-27T07:19:35.907Z,2.84
2023-02-27T07:20:35.191Z,2.94
2023-02-27T07:21:35.319Z,3.01
2023-02-27T07:22:34.804Z,3.10
2023-02-27T07:23:34.791Z,3.06
2023-02-27T07:24:35.172Z,3.21
2023-02-27T07:25:35.205Z,3.18
2023-02-27T07:26:34.988Z,3.19
2023-02-27T07:27:34.777Z,3.26
2023-02-27T07:28:35.275Z,3.28
2023-02-27T07:29:35.176Z,3.24
2023-02-27T07:30:34.725Z,3.18
2023-02-27T07:31:34.830Z,3.24
2023-02-27T07:32:34.706Z,3.18
2023-02-27T07:33:34.700Z,3.16
2023-02-27T07:34:35.172Z,3.16
2023-02-27T07:35:35.715Z,3.12
2023-02-27T07:36:37.869Z,3.12
2023-02-27T07:37:34.659Z,3.12
2023-02-27T07:38:34.654Z,3.11
2023-02-27T07:39:34.650Z,3.11
2023-02-27T07:40:34.641Z,3.03
2023-02-27T07:41:34.635Z,2.97
2023-02-27T07:42:34.650Z,3.01
2023-02-27T07:43:34.818Z,2.93
2023-02-27T07:44:35.037Z,2.90
2023-02-27T07:45:34.641Z,2.88
2023-02-27T07:46:34.694Z,2.87
2023-02-27T07:47:34.981Z,2.82
2023-02-27T07:48:34.564Z,2.80
2023-02-27T07:49:37.909Z,2.75
2023-02-27T07:50:34.551Z,2.76
2023-02-27T07:51:34.561Z,2.75
2023-02-27T07:52:38.214Z,2.70
2023-02-27T07:53:34.877Z,2.75
2023-02-27T07:54:37.710Z,2.70
2023-02-27T07:55:34.691Z,2.75
2023-02-27T07:56:34.496Z,2.64
2023-02-27T07:57:34.474Z,2.58
2023-02-27T07:58:34.476Z,2.58
2023-02-27T07:59:34.698Z,2.55
2023-02-27T08:00:34.474Z,2.50
2023-02-27T08:01:34.725Z,2.50
2023-02-27T08:02:34.865Z,2.45
2023-02-27T08:03:34.430Z,2.37
2023-02-27T08:04:34.485Z,2.37
2023-02-27T08:05:34.398Z,2.36
2023-02-27T08:06:34.392Z,2.30
2023-02-27T08:07:34.412Z,2.29
2023-02-27T08:08:34.365Z,2.24
2023-02-27T08:09:34.362Z,2.25
2023-02-27T08:10:34.696Z,2.22
2023-02-27T08:11:35.035Z,2.22
2023-02-27T08:12:34.690Z,2.20
2023-02-27T08:14:01.490Z,2.12
2023-02-27T08:14:34.704Z,2.12
2023-02-27T10:41:32.989Z,6.33
2023-02-27T12:07:39.714Z,3.56
2023-02-27T23:22:25.872Z,0.59
2023-02-27T23:23:25.855Z,0.58
2023-02-27T23:24:25.850Z,0.60
2023-02-27T23:25:25.855Z,0.59
2023-02-27T23:26:25.825Z,0.60
2023-02-27T23:27:26.610Z,0.59
2023-02-27T23:28:25.804Z,0.59
2023-02-27T23:29:25.798Z,0.59
2023-02-27T23:30:25.807Z,0.60
2023-02-27T23:31:25.887Z,0.59
2023-02-27T23:32:25.849Z,0.58
2023-02-27T23:33:25.770Z,0.59
2023-02-27T23:34:25.782Z,0.60
2023-02-27T23:35:25.769Z,0.59
2023-02-27T23:36:25.731Z,0.59
2023-02-27T23:37:25.726Z,0.58
2023-02-27T23:38:25.716Z,0.58
2023-02-27T23:40:25.695Z,0.58
2023-02-27T23:41:25.683Z,0.59
2023-02-27T23:42:25.680Z,0.58
2023-02-27T23:44:25.656Z,0.59
2023-02-27T23:45:25.676Z,0.58
2023-02-27T23:46:25.635Z,0.59
2023-02-27T23:47:25.632Z,0.58
2023-02-27T23:48:25.613Z,0.59
2023-02-27T23:49:25.616Z,0.58
2023-02-27T23:51:25.608Z,0.57
2023-02-27T23:53:25.570Z,0.58
2023-02-27T23:54:25.564Z,0.58
2023-02-27T23:55:25.564Z,0.58
2023-02-27T23:56:25.547Z,0.58
2023-02-27T23:57:25.532Z,0.57
2023-02-27T23:58:25.524Z,0.57
2023-02-27T23:59:25.522Z,0.57
